sensor_id;sensor_type;location;lat;lon;timestamp;P1;durP1;ratioP1;P2;durP2;ratioP2
7693;SDS011;3889;48.162;11.510;2022-08-20T00:00:55;15.75;;;14.35;;
7693;SDS011;3889;48.162;11.510;2022-08-20T00:03:29;15.43;;;13.93;;
7693;SDS011;3889;48.162;11.510;2022-08-20T00:06:00;14.70;;;13.33;;
7693;SDS011;3889;48.162;11.510;2022-08-20T00:08:30;15.50;;;14.20;;
7693;SDS011;3889;48.162;11.510;2022-08-20T00:10:59;15.27;;;13.88;;
7693;SDS011;3889;48.162;11.510;2022-08-20T00:13:28;16.23;;;14.73;;
7693;SDS011;3889;48.162;11.510;2022-08-20T00:15:58;15.90;;;14.52;;
7693;SDS011;3889;48.162;11.510;2022-08-20T00:18:26;15.77;;;14.47;;
7693;SDS011;3889;48.162;11.510;2022-08-20T00:20:54;16.98;;;15.48;;
7693;SDS011;3889;48.162;11.510;2022-08-20T00:23:24;17.40;;;15.80;;
7693;SDS011;3889;48.162;11.510;2022-08-20T00:25:52;16.60;;;15.20;;
7693;SDS011;3889;48.162;11.510;2022-08-20T00:28:20;17.80;;;16.10;;
7693;SDS011;3889;48.162;11.510;2022-08-20T00:30:48;17.35;;;15.70;;
7693;SDS011;3889;48.162;11.510;2022-08-20T00:33:17;18.23;;;16.45;;
7693;SDS011;3889;48.162;11.510;2022-08-20T00:35:47;18.98;;;17.17;;
7693;SDS011;3889;48.162;11.510;2022-08-20T00:38:17;19.15;;;17.45;;
7693;SDS011;3889;48.162;11.510;2022-08-20T00:40:48;19.05;;;17.35;;
7693;SDS011;3889;48.162;11.510;2022-08-20T00:43:26;18.88;;;17.17;;
7693;SDS011;3889;48.162;11.510;2022-08-20T00:46:00;19.40;;;17.70;;
7693;SDS011;3889;48.162;11.510;2022-08-20T00:48:31;20.40;;;18.50;;
7693;SDS011;3889;48.162;11.510;2022-08-20T00:51:02;20.02;;;18.33;;
7693;SDS011;3889;48.162;11.510;2022-08-20T00:53:32;21.98;;;19.98;;
7693;SDS011;3889;48.162;11.510;2022-08-20T00:56:03;22.60;;;20.50;;
7693;SDS011;3889;48.162;11.510;2022-08-20T00:58:32;21.87;;;19.77;;
7693;SDS011;3889;48.162;11.510;2022-08-20T01:01:02;22.38;;;20.35;;
7693;SDS011;3889;48.162;11.510;2022-08-20T01:03:32;23.10;;;21.00;;
7693;SDS011;3889;48.162;11.510;2022-08-20T01:06:00;21.98;;;19.98;;
7693;SDS011;3889;48.162;11.510;2022-08-20T01:08:28;22.80;;;20.80;;
7693;SDS011;3889;48.162;11.510;2022-08-20T01:10:58;22.25;;;20.23;;
7693;SDS011;3889;48.162;11.510;2022-08-20T01:13:40;23.17;;;20.98;;
7693;SDS011;3889;48.162;11.510;2022-08-20T01:16:14;22.30;;;20.30;;
7693;SDS011;3889;48.162;11.510;2022-08-20T01:18:45;23.92;;;21.65;;
7693;SDS011;3889;48.162;11.510;2022-08-20T01:21:16;23.63;;;21.48;;
7693;SDS011;3889;48.162;11.510;2022-08-20T01:23:50;23.85;;;21.55;;
7693;SDS011;3889;48.162;11.510;2022-08-20T01:26:28;23.85;;;21.58;;
7693;SDS011;3889;48.162;11.510;2022-08-20T01:29:00;23.80;;;21.60;;
7693;SDS011;3889;48.162;11.510;2022-08-20T01:31:32;24.10;;;21.90;;
7693;SDS011;3889;48.162;11.510;2022-08-20T01:34:03;24.45;;;22.25;;
7693;SDS011;3889;48.162;11.510;2022-08-20T01:36:34;25.35;;;22.92;;
7693;SDS011;3889;48.162;11.510;2022-08-20T01:39:09;25.20;;;22.70;;
7693;SDS011;3889;48.162;11.510;2022-08-20T01:41:43;25.42;;;22.98;;
7693;SDS011;3889;48.162;11.510;2022-08-20T01:44:18;25.08;;;22.75;;
7693;SDS011;3889;48.162;11.510;2022-08-20T01:46:50;24.90;;;22.40;;
7693;SDS011;3889;48.162;11.510;2022-08-20T01:49:24;27.60;;;24.92;;
7693;SDS011;3889;48.162;11.510;2022-08-20T01:51:55;26.67;;;24.17;;
7693;SDS011;3889;48.162;11.510;2022-08-20T01:54:25;38.75;;;34.90;;
7693;SDS011;3889;48.162;11.510;2022-08-20T01:56:56;27.95;;;25.40;;
7693;SDS011;3889;48.162;11.510;2022-08-20T01:59:31;27.83;;;25.10;;
7693;SDS011;3889;48.162;11.510;2022-08-20T02:01:59;28.50;;;25.65;;
7693;SDS011;3889;48.162;11.510;2022-08-20T02:04:27;28.08;;;25.27;;
7693;SDS011;3889;48.162;11.510;2022-08-20T02:06:57;28.83;;;26.08;;
7693;SDS011;3889;48.162;11.510;2022-08-20T02:09:28;27.83;;;25.23;;
7693;SDS011;3889;48.162;11.510;2022-08-20T02:12:00;28.27;;;25.58;;
7693;SDS011;3889;48.162;11.510;2022-08-20T02:14:29;29.38;;;26.50;;
7693;SDS011;3889;48.162;11.510;2022-08-20T02:16:57;29.60;;;26.63;;
7693;SDS011;3889;48.162;11.510;2022-08-20T02:19:27;28.40;;;25.52;;
7693;SDS011;3889;48.162;11.510;2022-08-20T02:21:59;30.80;;;27.80;;
7693;SDS011;3889;48.162;11.510;2022-08-20T02:24:31;29.52;;;26.42;;
7693;SDS011;3889;48.162;11.510;2022-08-20T02:27:01;30.92;;;27.73;;
7693;SDS011;3889;48.162;11.510;2022-08-20T02:29:29;31.25;;;28.20;;
7693;SDS011;3889;48.162;11.510;2022-08-20T02:31:57;31.30;;;28.10;;
7693;SDS011;3889;48.162;11.510;2022-08-20T02:34:45;32.67;;;29.40;;
7693;SDS011;3889;48.162;11.510;2022-08-20T02:37:14;31.48;;;28.15;;
7693;SDS011;3889;48.162;11.510;2022-08-20T02:39:43;31.42;;;28.23;;
7693;SDS011;3889;48.162;11.510;2022-08-20T02:42:13;31.27;;;28.15;;
7693;SDS011;3889;48.162;11.510;2022-08-20T02:44:42;30.90;;;27.65;;
7693;SDS011;3889;48.162;11.510;2022-08-20T02:47:10;29.48;;;26.55;;
7693;SDS011;3889;48.162;11.510;2022-08-20T02:49:38;31.85;;;28.52;;
7693;SDS011;3889;48.162;11.510;2022-08-20T02:52:05;30.95;;;27.67;;
7693;SDS011;3889;48.162;11.510;2022-08-20T02:54:33;31.67;;;28.48;;
7693;SDS011;3889;48.162;11.510;2022-08-20T02:57:02;31.40;;;28.17;;
7693;SDS011;3889;48.162;11.510;2022-08-20T02:59:31;31.80;;;28.60;;
7693;SDS011;3889;48.162;11.510;2022-08-20T03:01:59;32.75;;;29.48;;
7693;SDS011;3889;48.162;11.510;2022-08-20T03:04:27;31.20;;;28.10;;
7693;SDS011;3889;48.162;11.510;2022-08-20T03:06:55;31.15;;;28.08;;
7693;SDS011;3889;48.162;11.510;2022-08-20T03:09:24;31.88;;;28.60;;
7693;SDS011;3889;48.162;11.510;2022-08-20T03:11:52;34.33;;;28.73;;
7693;SDS011;3889;48.162;11.510;2022-08-20T03:14:20;30.00;;;27.10;;
7693;SDS011;3889;48.162;11.510;2022-08-20T03:16:50;32.30;;;29.02;;
7693;SDS011;3889;48.162;11.510;2022-08-20T03:19:18;31.10;;;27.90;;
7693;SDS011;3889;48.162;11.510;2022-08-20T03:21:46;30.58;;;27.40;;
7693;SDS011;3889;48.162;11.510;2022-08-20T03:24:14;30.70;;;27.60;;
7693;SDS011;3889;48.162;11.510;2022-08-20T03:26:42;30.45;;;27.35;;
7693;SDS011;3889;48.162;11.510;2022-08-20T03:29:10;30.23;;;27.27;;
7693;SDS011;3889;48.162;11.510;2022-08-20T03:31:38;30.63;;;27.63;;
7693;SDS011;3889;48.162;11.510;2022-08-20T03:34:07;29.27;;;26.37;;
7693;SDS011;3889;48.162;11.510;2022-08-20T03:36:36;31.65;;;28.50;;
7693;SDS011;3889;48.162;11.510;2022-08-20T03:39:05;31.53;;;28.53;;
7693;SDS011;3889;48.162;11.510;2022-08-20T03:41:36;32.00;;;28.75;;
7693;SDS011;3889;48.162;11.510;2022-08-20T03:44:04;31.17;;;27.98;;
7693;SDS011;3889;48.162;11.510;2022-08-20T03:46:33;31.08;;;28.02;;
7693;SDS011;3889;48.162;11.510;2022-08-20T03:49:02;30.60;;;27.48;;
7693;SDS011;3889;48.162;11.510;2022-08-20T03:51:31;30.50;;;27.48;;
7693;SDS011;3889;48.162;11.510;2022-08-20T03:54:19;31.23;;;27.92;;
7693;SDS011;3889;48.162;11.510;2022-08-20T03:56:47;30.95;;;27.83;;
7693;SDS011;3889;48.162;11.510;2022-08-20T03:59:15;30.55;;;27.48;;
7693;SDS011;3889;48.162;11.510;2022-08-20T04:01:43;31.35;;;28.15;;
7693;SDS011;3889;48.162;11.510;2022-08-20T04:04:12;31.63;;;28.42;;
7693;SDS011;3889;48.162;11.510;2022-08-20T04:06:41;29.63;;;26.67;;
7693;SDS011;3889;48.162;11.510;2022-08-20T04:09:12;30.53;;;27.50;;
7693;SDS011;3889;48.162;11.510;2022-08-20T04:11:41;29.85;;;26.85;;
7693;SDS011;3889;48.162;11.510;2022-08-20T04:14:09;29.58;;;26.70;;
7693;SDS011;3889;48.162;11.510;2022-08-20T04:16:43;30.85;;;27.75;;
7693;SDS011;3889;48.162;11.510;2022-08-20T04:19:14;29.70;;;26.70;;
7693;SDS011;3889;48.162;11.510;2022-08-20T04:21:44;29.60;;;26.63;;
7693;SDS011;3889;48.162;11.510;2022-08-20T04:24:13;30.10;;;27.20;;
7693;SDS011;3889;48.162;11.510;2022-08-20T04:26:57;29.40;;;26.50;;
7693;SDS011;3889;48.162;11.510;2022-08-20T04:29:27;28.70;;;25.80;;
7693;SDS011;3889;48.162;11.510;2022-08-20T04:31:58;28.97;;;26.03;;
7693;SDS011;3889;48.162;11.510;2022-08-20T04:34:30;28.85;;;25.85;;
7693;SDS011;3889;48.162;11.510;2022-08-20T04:37:00;30.95;;;27.25;;
7693;SDS011;3889;48.162;11.510;2022-08-20T04:39:28;29.52;;;26.52;;
7693;SDS011;3889;48.162;11.510;2022-08-20T04:41:57;30.98;;;27.75;;
7693;SDS011;3889;48.162;11.510;2022-08-20T04:44:24;29.55;;;26.50;;
7693;SDS011;3889;48.162;11.510;2022-08-20T04:46:52;28.23;;;25.35;;
7693;SDS011;3889;48.162;11.510;2022-08-20T04:49:20;27.75;;;24.95;;
7693;SDS011;3889;48.162;11.510;2022-08-20T04:51:50;28.73;;;25.93;;
7693;SDS011;3889;48.162;11.510;2022-08-20T04:54:20;28.38;;;25.50;;
7693;SDS011;3889;48.162;11.510;2022-08-20T04:56:48;28.23;;;25.48;;
7693;SDS011;3889;48.162;11.510;2022-08-20T04:59:17;28.60;;;25.70;;
7693;SDS011;3889;48.162;11.510;2022-08-20T05:01:45;28.77;;;25.92;;
7693;SDS011;3889;48.162;11.510;2022-08-20T05:04:13;29.38;;;26.52;;
7693;SDS011;3889;48.162;11.510;2022-08-20T05:06:41;29.35;;;26.25;;
7693;SDS011;3889;48.162;11.510;2022-08-20T05:09:09;28.98;;;26.08;;
7693;SDS011;3889;48.162;11.510;2022-08-20T05:11:39;28.55;;;25.77;;
7693;SDS011;3889;48.162;11.510;2022-08-20T05:14:07;28.85;;;25.95;;
7693;SDS011;3889;48.162;11.510;2022-08-20T05:16:35;27.30;;;24.60;;
7693;SDS011;3889;48.162;11.510;2022-08-20T05:19:04;37.20;;;33.88;;
7693;SDS011;3889;48.162;11.510;2022-08-20T05:21:34;28.23;;;25.53;;
7693;SDS011;3889;48.162;11.510;2022-08-20T05:24:02;27.98;;;25.17;;
7693;SDS011;3889;48.162;11.510;2022-08-20T05:26:31;26.85;;;24.13;;
7693;SDS011;3889;48.162;11.510;2022-08-20T05:29:00;25.95;;;23.48;;
7693;SDS011;3889;48.162;11.510;2022-08-20T05:31:31;26.00;;;23.50;;
7693;SDS011;3889;48.162;11.510;2022-08-20T05:34:00;26.95;;;24.27;;
7693;SDS011;3889;48.162;11.510;2022-08-20T05:36:28;26.07;;;23.57;;
7693;SDS011;3889;48.162;11.510;2022-08-20T05:38:56;26.87;;;24.23;;
7693;SDS011;3889;48.162;11.510;2022-08-20T05:41:24;26.47;;;23.70;;
7693;SDS011;3889;48.162;11.510;2022-08-20T05:43:55;25.90;;;23.27;;
7693;SDS011;3889;48.162;11.510;2022-08-20T05:46:26;27.08;;;24.45;;
7693;SDS011;3889;48.162;11.510;2022-08-20T05:48:54;27.02;;;24.42;;
7693;SDS011;3889;48.162;11.510;2022-08-20T05:51:25;26.05;;;23.45;;
7693;SDS011;3889;48.162;11.510;2022-08-20T05:53:53;25.60;;;23.05;;
7693;SDS011;3889;48.162;11.510;2022-08-20T05:56:24;24.27;;;21.98;;
7693;SDS011;3889;48.162;11.510;2022-08-20T05:58:56;25.38;;;22.90;;
7693;SDS011;3889;48.162;11.510;2022-08-20T06:01:26;25.47;;;23.07;;
7693;SDS011;3889;48.162;11.510;2022-08-20T06:03:54;23.85;;;21.40;;
7693;SDS011;3889;48.162;11.510;2022-08-20T06:06:36;23.95;;;21.63;;
7693;SDS011;3889;48.162;11.510;2022-08-20T06:09:11;24.17;;;21.88;;
7693;SDS011;3889;48.162;11.510;2022-08-20T06:11:40;24.77;;;22.48;;
7693;SDS011;3889;48.162;11.510;2022-08-20T06:14:08;24.17;;;21.88;;
7693;SDS011;3889;48.162;11.510;2022-08-20T06:16:37;23.83;;;21.40;;
7693;SDS011;3889;48.162;11.510;2022-08-20T06:19:23;22.58;;;20.42;;
7693;SDS011;3889;48.162;11.510;2022-08-20T06:21:51;23.05;;;20.85;;
7693;SDS011;3889;48.162;11.510;2022-08-20T06:24:19;22.75;;;20.60;;
7693;SDS011;3889;48.162;11.510;2022-08-20T06:26:53;22.95;;;20.65;;
7693;SDS011;3889;48.162;11.510;2022-08-20T06:29:21;22.47;;;20.37;;
7693;SDS011;3889;48.162;11.510;2022-08-20T06:31:50;22.90;;;20.50;;
7693;SDS011;3889;48.162;11.510;2022-08-20T06:34:18;21.48;;;19.38;;
7693;SDS011;3889;48.162;11.510;2022-08-20T06:36:46;20.73;;;18.73;;
7693;SDS011;3889;48.162;11.510;2022-08-20T06:39:14;21.50;;;19.43;;
7693;SDS011;3889;48.162;11.510;2022-08-20T06:41:42;21.80;;;19.70;;
7693;SDS011;3889;48.162;11.510;2022-08-20T06:44:10;20.85;;;18.75;;
7693;SDS011;3889;48.162;11.510;2022-08-20T06:46:39;21.48;;;19.48;;
7693;SDS011;3889;48.162;11.510;2022-08-20T06:49:10;21.67;;;19.45;;
7693;SDS011;3889;48.162;11.510;2022-08-20T06:51:38;20.88;;;18.88;;
7693;SDS011;3889;48.162;11.510;2022-08-20T06:54:06;20.48;;;18.48;;
7693;SDS011;3889;48.162;11.510;2022-08-20T06:56:34;20.00;;;18.00;;
7693;SDS011;3889;48.162;11.510;2022-08-20T06:59:02;19.60;;;17.80;;
7693;SDS011;3889;48.162;11.510;2022-08-20T07:01:30;20.00;;;18.15;;
7693;SDS011;3889;48.162;11.510;2022-08-20T07:03:58;18.42;;;16.73;;
7693;SDS011;3889;48.162;11.510;2022-08-20T07:06:27;17.60;;;15.88;;
7693;SDS011;3889;48.162;11.510;2022-08-20T07:08:55;18.63;;;16.87;;
7693;SDS011;3889;48.162;11.510;2022-08-20T07:11:23;18.92;;;17.02;;
7693;SDS011;3889;48.162;11.510;2022-08-20T07:13:54;17.88;;;16.17;;
7693;SDS011;3889;48.162;11.510;2022-08-20T07:16:23;17.88;;;16.23;;
7693;SDS011;3889;48.162;11.510;2022-08-20T07:18:52;17.08;;;15.50;;
7693;SDS011;3889;48.162;11.510;2022-08-20T07:21:20;17.05;;;15.45;;
7693;SDS011;3889;48.162;11.510;2022-08-20T07:23:49;17.13;;;15.63;;
7693;SDS011;3889;48.162;11.510;2022-08-20T07:26:18;16.35;;;14.65;;
7693;SDS011;3889;48.162;11.510;2022-08-20T07:28:46;17.58;;;16.02;;
7693;SDS011;3889;48.162;11.510;2022-08-20T07:31:14;16.95;;;15.35;;
7693;SDS011;3889;48.162;11.510;2022-08-20T07:34:00;16.65;;;15.05;;
7693;SDS011;3889;48.162;11.510;2022-08-20T07:36:28;16.88;;;15.18;;
7693;SDS011;3889;48.162;11.510;2022-08-20T07:38:57;16.52;;;14.93;;
7693;SDS011;3889;48.162;11.510;2022-08-20T07:41:31;16.27;;;14.68;;
7693;SDS011;3889;48.162;11.510;2022-08-20T07:43:59;16.35;;;14.85;;
7693;SDS011;3889;48.162;11.510;2022-08-20T07:46:27;15.68;;;14.07;;
7693;SDS011;3889;48.162;11.510;2022-08-20T07:48:57;16.73;;;15.00;;
7693;SDS011;3889;48.162;11.510;2022-08-20T07:51:25;15.00;;;13.52;;
7693;SDS011;3889;48.162;11.510;2022-08-20T07:53:53;14.75;;;13.27;;
7693;SDS011;3889;48.162;11.510;2022-08-20T07:56:24;14.75;;;13.40;;
7693;SDS011;3889;48.162;11.510;2022-08-20T07:58:53;15.48;;;14.02;;
7693;SDS011;3889;48.162;11.510;2022-08-20T08:01:25;15.30;;;13.90;;
7693;SDS011;3889;48.162;11.510;2022-08-20T08:03:55;14.93;;;13.43;;
7693;SDS011;3889;48.162;11.510;2022-08-20T08:06:24;14.15;;;12.85;;
7693;SDS011;3889;48.162;11.510;2022-08-20T08:08:57;14.43;;;12.98;;
7693;SDS011;3889;48.162;11.510;2022-08-20T08:11:31;14.75;;;13.23;;
7693;SDS011;3889;48.162;11.510;2022-08-20T08:14:00;13.30;;;12.13;;
7693;SDS011;3889;48.162;11.510;2022-08-20T08:16:31;14.00;;;12.68;;
7693;SDS011;3889;48.162;11.510;2022-08-20T08:18:59;12.88;;;11.68;;
7693;SDS011;3889;48.162;11.510;2022-08-20T08:21:28;13.82;;;12.52;;
7693;SDS011;3889;48.162;11.510;2022-08-20T08:23:57;13.85;;;12.48;;
7693;SDS011;3889;48.162;11.510;2022-08-20T08:26:25;13.60;;;12.43;;
7693;SDS011;3889;48.162;11.510;2022-08-20T08:28:55;13.98;;;12.75;;
7693;SDS011;3889;48.162;11.510;2022-08-20T08:31:23;13.82;;;12.55;;
7693;SDS011;3889;48.162;11.510;2022-08-20T08:33:52;14.23;;;13.02;;
7693;SDS011;3889;48.162;11.510;2022-08-20T08:36:20;14.00;;;12.60;;
7693;SDS011;3889;48.162;11.510;2022-08-20T08:38:48;14.50;;;13.18;;
7693;SDS011;3889;48.162;11.510;2022-08-20T08:41:17;14.15;;;12.82;;
7693;SDS011;3889;48.162;11.510;2022-08-20T08:43:48;13.80;;;12.50;;
7693;SDS011;3889;48.162;11.510;2022-08-20T08:46:21;14.50;;;13.30;;
7693;SDS011;3889;48.162;11.510;2022-08-20T08:48:53;14.15;;;12.88;;
7693;SDS011;3889;48.162;11.510;2022-08-20T08:51:27;13.63;;;12.43;;
7693;SDS011;3889;48.162;11.510;2022-08-20T08:53:59;13.98;;;12.68;;
7693;SDS011;3889;48.162;11.510;2022-08-20T08:56:32;13.95;;;12.63;;
7693;SDS011;3889;48.162;11.510;2022-08-20T08:59:03;13.48;;;12.27;;
7693;SDS011;3889;48.162;11.510;2022-08-20T09:01:35;13.27;;;12.15;;
7693;SDS011;3889;48.162;11.510;2022-08-20T09:04:22;13.90;;;12.60;;
7693;SDS011;3889;48.162;11.510;2022-08-20T09:06:56;14.02;;;12.82;;
7693;SDS011;3889;48.162;11.510;2022-08-20T09:09:26;13.97;;;12.70;;
7693;SDS011;3889;48.162;11.510;2022-08-20T09:12:01;14.10;;;12.60;;
7693;SDS011;3889;48.162;11.510;2022-08-20T09:14:30;14.17;;;12.87;;
7693;SDS011;3889;48.162;11.510;2022-08-20T09:17:00;14.32;;;13.02;;
7693;SDS011;3889;48.162;11.510;2022-08-20T09:19:29;14.65;;;13.35;;
7693;SDS011;3889;48.162;11.510;2022-08-20T09:21:57;14.48;;;13.18;;
7693;SDS011;3889;48.162;11.510;2022-08-20T09:24:25;14.73;;;13.32;;
7693;SDS011;3889;48.162;11.510;2022-08-20T09:26:53;15.25;;;13.88;;
7693;SDS011;3889;48.162;11.510;2022-08-20T09:29:21;15.15;;;13.65;;
7693;SDS011;3889;48.162;11.510;2022-08-20T09:31:48;15.93;;;14.43;;
7693;SDS011;3889;48.162;11.510;2022-08-20T09:34:19;15.85;;;14.35;;
7693;SDS011;3889;48.162;11.510;2022-08-20T09:36:47;16.45;;;14.95;;
7693;SDS011;3889;48.162;11.510;2022-08-20T09:39:15;16.40;;;14.90;;
7693;SDS011;3889;48.162;11.510;2022-08-20T09:41:42;17.33;;;15.75;;
7693;SDS011;3889;48.162;11.510;2022-08-20T09:44:10;16.67;;;15.18;;
7693;SDS011;3889;48.162;11.510;2022-08-20T09:46:38;17.05;;;15.55;;
7693;SDS011;3889;48.162;11.510;2022-08-20T09:49:06;17.60;;;16.10;;
7693;SDS011;3889;48.162;11.510;2022-08-20T09:51:39;17.77;;;16.23;;
7693;SDS011;3889;48.162;11.510;2022-08-20T09:54:07;18.13;;;16.52;;
7693;SDS011;3889;48.162;11.510;2022-08-20T09:56:35;18.58;;;16.88;;
7693;SDS011;3889;48.162;11.510;2022-08-20T09:59:03;18.23;;;16.52;;
7693;SDS011;3889;48.162;11.510;2022-08-20T10:01:31;18.45;;;16.90;;
7693;SDS011;3889;48.162;11.510;2022-08-20T10:04:00;18.40;;;16.75;;
7693;SDS011;3889;48.162;11.510;2022-08-20T10:06:28;19.92;;;18.02;;
7693;SDS011;3889;48.162;11.510;2022-08-20T10:09:03;18.80;;;17.07;;
7693;SDS011;3889;48.162;11.510;2022-08-20T10:11:32;19.23;;;17.30;;
7693;SDS011;3889;48.162;11.510;2022-08-20T10:14:00;19.40;;;17.70;;
7693;SDS011;3889;48.162;11.510;2022-08-20T10:16:28;17.63;;;16.17;;
7693;SDS011;3889;48.162;11.510;2022-08-20T10:18:56;19.70;;;17.97;;
7693;SDS011;3889;48.162;11.510;2022-08-20T10:21:24;19.92;;;18.08;;
7693;SDS011;3889;48.162;11.510;2022-08-20T10:23:52;19.85;;;18.15;;
7693;SDS011;3889;48.162;11.510;2022-08-20T10:26:22;19.98;;;18.23;;
7693;SDS011;3889;48.162;11.510;2022-08-20T10:28:51;19.48;;;17.77;;
7693;SDS011;3889;48.162;11.510;2022-08-20T10:31:18;20.90;;;19.10;;
7693;SDS011;3889;48.162;11.510;2022-08-20T10:33:47;20.33;;;18.63;;
7693;SDS011;3889;48.162;11.510;2022-08-20T10:36:16;19.67;;;18.07;;
7693;SDS011;3889;48.162;11.510;2022-08-20T10:38:44;19.50;;;17.80;;
7693;SDS011;3889;48.162;11.510;2022-08-20T10:41:13;19.65;;;17.90;;
7693;SDS011;3889;48.162;11.510;2022-08-20T10:43:43;19.30;;;17.70;;
7693;SDS011;3889;48.162;11.510;2022-08-20T10:46:10;18.73;;;17.13;;
7693;SDS011;3889;48.162;11.510;2022-08-20T10:48:38;19.20;;;17.40;;
7693;SDS011;3889;48.162;11.510;2022-08-20T10:51:06;19.13;;;17.50;;
7693;SDS011;3889;48.162;11.510;2022-08-20T10:53:34;20.63;;;18.92;;
7693;SDS011;3889;48.162;11.510;2022-08-20T10:56:02;22.05;;;20.08;;
7693;SDS011;3889;48.162;11.510;2022-08-20T10:58:30;21.92;;;20.02;;
7693;SDS011;3889;48.162;11.510;2022-08-20T11:01:07;21.80;;;19.93;;
7693;SDS011;3889;48.162;11.510;2022-08-20T11:03:35;22.67;;;20.60;;
7693;SDS011;3889;48.162;11.510;2022-08-20T11:06:03;23.83;;;21.55;;
7693;SDS011;3889;48.162;11.510;2022-08-20T11:08:31;23.08;;;20.95;;
7693;SDS011;3889;48.162;11.510;2022-08-20T11:11:01;21.97;;;20.03;;
7693;SDS011;3889;48.162;11.510;2022-08-20T11:13:30;21.80;;;20.00;;
7693;SDS011;3889;48.162;11.510;2022-08-20T11:15:58;22.63;;;20.63;;
7693;SDS011;3889;48.162;11.510;2022-08-20T11:18:29;22.75;;;20.55;;
7693;SDS011;3889;48.162;11.510;2022-08-20T11:20:58;21.05;;;19.27;;
7693;SDS011;3889;48.162;11.510;2022-08-20T11:23:26;22.30;;;20.30;;
7693;SDS011;3889;48.162;11.510;2022-08-20T11:25:55;21.17;;;19.48;;
7693;SDS011;3889;48.162;11.510;2022-08-20T11:28:23;22.48;;;20.50;;
7693;SDS011;3889;48.162;11.510;2022-08-20T11:30:57;22.70;;;20.60;;
7693;SDS011;3889;48.162;11.510;2022-08-20T11:33:26;23.33;;;21.23;;
7693;SDS011;3889;48.162;11.510;2022-08-20T11:35:55;22.60;;;20.40;;
7693;SDS011;3889;48.162;11.510;2022-08-20T11:38:23;21.00;;;19.20;;
7693;SDS011;3889;48.162;11.510;2022-08-20T11:40:52;20.65;;;18.90;;
7693;SDS011;3889;48.162;11.510;2022-08-20T11:43:20;21.08;;;19.25;;
7693;SDS011;3889;48.162;11.510;2022-08-20T11:45:49;20.45;;;18.65;;
7693;SDS011;3889;48.162;11.510;2022-08-20T11:48:20;20.05;;;18.30;;
7693;SDS011;3889;48.162;11.510;2022-08-20T11:50:49;20.30;;;18.60;;
7693;SDS011;3889;48.162;11.510;2022-08-20T11:53:19;19.47;;;17.77;;
7693;SDS011;3889;48.162;11.510;2022-08-20T11:55:47;20.52;;;18.73;;
7693;SDS011;3889;48.162;11.510;2022-08-20T11:58:16;20.60;;;18.80;;
7693;SDS011;3889;48.162;11.510;2022-08-20T12:00:44;20.90;;;18.92;;
7693;SDS011;3889;48.162;11.510;2022-08-20T12:03:12;19.85;;;18.15;;
7693;SDS011;3889;48.162;11.510;2022-08-20T12:05:41;20.15;;;18.33;;
7693;SDS011;3889;48.162;11.510;2022-08-20T12:08:11;20.40;;;18.17;;
7693;SDS011;3889;48.162;11.510;2022-08-20T12:10:54;16.80;;;15.40;;
7693;SDS011;3889;48.162;11.510;2022-08-20T12:13:23;12.00;;;10.93;;
7693;SDS011;3889;48.162;11.510;2022-08-20T12:16:11;10.60;;;9.70;;
7693;SDS011;3889;48.162;11.510;2022-08-20T12:18:39;10.68;;;9.68;;
7693;SDS011;3889;48.162;11.510;2022-08-20T12:21:07;10.47;;;9.57;;
7693;SDS011;3889;48.162;11.510;2022-08-20T12:23:35;10.07;;;9.27;;
7693;SDS011;3889;48.162;11.510;2022-08-20T12:26:04;12.10;;;10.43;;
7693;SDS011;3889;48.162;11.510;2022-08-20T12:28:32;11.73;;;10.73;;
7693;SDS011;3889;48.162;11.510;2022-08-20T12:31:00;11.37;;;10.43;;
7693;SDS011;3889;48.162;11.510;2022-08-20T12:33:28;11.50;;;10.50;;
7693;SDS011;3889;48.162;11.510;2022-08-20T12:35:56;11.02;;;10.13;;
7693;SDS011;3889;48.162;11.510;2022-08-20T12:38:24;11.30;;;10.37;;
7693;SDS011;3889;48.162;11.510;2022-08-20T12:40:52;11.98;;;10.88;;
7693;SDS011;3889;48.162;11.510;2022-08-20T12:43:21;12.07;;;11.07;;
7693;SDS011;3889;48.162;11.510;2022-08-20T12:45:50;12.30;;;11.13;;
7693;SDS011;3889;48.162;11.510;2022-08-20T12:48:18;12.35;;;11.25;;
7693;SDS011;3889;48.162;11.510;2022-08-20T12:50:47;12.63;;;11.43;;
7693;SDS011;3889;48.162;11.510;2022-08-20T12:53:17;12.70;;;11.60;;
7693;SDS011;3889;48.162;11.510;2022-08-20T12:55:45;12.10;;;11.07;;
7693;SDS011;3889;48.162;11.510;2022-08-20T12:58:14;12.45;;;11.35;;
7693;SDS011;3889;48.162;11.510;2022-08-20T13:00:43;12.25;;;11.25;;
7693;SDS011;3889;48.162;11.510;2022-08-20T13:03:16;13.73;;;12.53;;
7693;SDS011;3889;48.162;11.510;2022-08-20T13:05:44;13.45;;;12.25;;
7693;SDS011;3889;48.162;11.510;2022-08-20T13:08:12;13.33;;;12.20;;
7693;SDS011;3889;48.162;11.510;2022-08-20T13:10:41;12.40;;;11.40;;
7693;SDS011;3889;48.162;11.510;2022-08-20T13:13:11;12.07;;;11.07;;
7693;SDS011;3889;48.162;11.510;2022-08-20T13:15:40;11.95;;;10.95;;
7693;SDS011;3889;48.162;11.510;2022-08-20T13:18:09;12.35;;;11.05;;
7693;SDS011;3889;48.162;11.510;2022-08-20T13:20:37;12.13;;;10.88;;
7693;SDS011;3889;48.162;11.510;2022-08-20T13:23:05;12.05;;;10.95;;
7693;SDS011;3889;48.162;11.510;2022-08-20T13:25:33;11.50;;;10.50;;
7693;SDS011;3889;48.162;11.510;2022-08-20T13:28:01;12.00;;;10.80;;
7693;SDS011;3889;48.162;11.510;2022-08-20T13:30:32;11.15;;;10.07;;
7693;SDS011;3889;48.162;11.510;2022-08-20T13:33:02;11.40;;;10.32;;
7693;SDS011;3889;48.162;11.510;2022-08-20T13:35:31;12.05;;;10.95;;
7693;SDS011;3889;48.162;11.510;2022-08-20T13:37:59;11.30;;;10.30;;
7693;SDS011;3889;48.162;11.510;2022-08-20T13:40:27;11.80;;;10.70;;
7693;SDS011;3889;48.162;11.510;2022-08-20T13:42:55;12.20;;;11.07;;
7693;SDS011;3889;48.162;11.510;2022-08-20T13:45:23;11.07;;;9.98;;
7693;SDS011;3889;48.162;11.510;2022-08-20T13:47:52;10.60;;;9.70;;
7693;SDS011;3889;48.162;11.510;2022-08-20T13:50:22;10.80;;;9.80;;
7693;SDS011;3889;48.162;11.510;2022-08-20T13:52:52;11.32;;;9.95;;
7693;SDS011;3889;48.162;11.510;2022-08-20T13:55:22;10.88;;;9.82;;
7693;SDS011;3889;48.162;11.510;2022-08-20T13:57:51;10.75;;;9.73;;
7693;SDS011;3889;48.162;11.510;2022-08-20T14:00:22;10.52;;;9.52;;
7693;SDS011;3889;48.162;11.510;2022-08-20T14:02:57;9.90;;;9.00;;
7693;SDS011;3889;48.162;11.510;2022-08-20T14:05:25;8.10;;;7.40;;
7693;SDS011;3889;48.162;11.510;2022-08-20T14:08:02;3.67;;;3.30;;
7693;SDS011;3889;48.162;11.510;2022-08-20T14:10:34;4.25;;;2.60;;
7693;SDS011;3889;48.162;11.510;2022-08-20T14:13:03;2.17;;;1.98;;
7693;SDS011;3889;48.162;11.510;2022-08-20T14:15:31;2.23;;;1.80;;
7693;SDS011;3889;48.162;11.510;2022-08-20T14:18:00;3.65;;;2.15;;
7693;SDS011;3889;48.162;11.510;2022-08-20T14:20:53;3.65;;;2.10;;
7693;SDS011;3889;48.162;11.510;2022-08-20T14:23:46;8.70;;;3.80;;
7693;SDS011;3889;48.162;11.510;2022-08-20T14:26:38;11.70;;;5.82;;
7693;SDS011;3889;48.162;11.510;2022-08-20T14:29:30;7.03;;;3.95;;
7693;SDS011;3889;48.162;11.510;2022-08-20T14:32:23;6.35;;;3.67;;
7693;SDS011;3889;48.162;11.510;2022-08-20T14:35:15;7.53;;;3.70;;
7693;SDS011;3889;48.162;11.510;2022-08-20T14:38:07;4.72;;;3.53;;
7693;SDS011;3889;48.162;11.510;2022-08-20T14:41:00;10.15;;;6.47;;
7693;SDS011;3889;48.162;11.510;2022-08-20T14:43:52;4.65;;;3.30;;
7693;SDS011;3889;48.162;11.510;2022-08-20T14:46:44;3.85;;;3.20;;
7693;SDS011;3889;48.162;11.510;2022-08-20T14:49:36;4.43;;;3.00;;
7693;SDS011;3889;48.162;11.510;2022-08-20T14:52:28;3.47;;;2.83;;
7693;SDS011;3889;48.162;11.510;2022-08-20T14:55:22;3.03;;;2.72;;